sensor_id;sensor_type;location;lat;lon;timestamp;P1;durP1;ratioP1;P2;durP2;ratioP2
13421;SDS011;6782;55.904;13.396;2023-03-21T00:01:11;13.07;;;10.43;;
13421;SDS011;6782;55.904;13.396;2023-03-21T00:03:58;11.43;;;10.33;;
13421;SDS011;6782;55.904;13.396;2023-03-21T00:06:47;11.23;;;9.97;;
13421;SDS011;6782;55.904;13.396;2023-03-21T00:09:35;12.83;;;11.43;;
13421;SDS011;6782;55.904;13.396;2023-03-21T00:12:21;13.23;;;10.37;;
13421;SDS011;6782;55.904;13.396;2023-03-21T00:15:09;13.20;;;10.00;;
13421;SDS011;6782;55.904;13.396;2023-03-21T00:17:57;11.70;;;10.27;;
13421;SDS011;6782;55.904;13.396;2023-03-21T00:20:55;12.13;;;9.20;;
13421;SDS011;6782;55.904;13.396;2023-03-21T00:23:44;15.57;;;9.63;;
13421;SDS011;6782;55.904;13.396;2023-03-21T00:26:32;11.30;;;10.20;;
13421;SDS011;6782;55.904;13.396;2023-03-21T00:29:19;12.77;;;11.27;;
13421;SDS011;6782;55.904;13.396;2023-03-21T00:32:06;12.03;;;9.33;;
13421;SDS011;6782;55.904;13.396;2023-03-21T00:34:53;15.47;;;8.87;;
13421;SDS011;6782;55.904;13.396;2023-03-21T00:37:40;14.30;;;7.97;;
13421;SDS011;6782;55.904;13.396;2023-03-21T00:40:29;13.57;;;9.00;;
13421;SDS011;6782;55.904;13.396;2023-03-21T00:43:16;11.97;;;9.20;;
13421;SDS011;6782;55.904;13.396;2023-03-21T00:46:07;10.63;;;9.50;;
13421;SDS011;6782;55.904;13.396;2023-03-21T00:48:54;10.80;;;9.63;;
13421;SDS011;6782;55.904;13.396;2023-03-21T00:51:42;12.43;;;10.13;;
13421;SDS011;6782;55.904;13.396;2023-03-21T00:54:29;10.97;;;9.67;;
13421;SDS011;6782;55.904;13.396;2023-03-21T00:57:18;13.40;;;11.47;;
13421;SDS011;6782;55.904;13.396;2023-03-21T01:00:05;14.13;;;11.70;;
13421;SDS011;6782;55.904;13.396;2023-03-21T01:02:54;21.50;;;14.27;;
13421;SDS011;6782;55.904;13.396;2023-03-21T01:05:50;17.03;;;11.13;;
13421;SDS011;6782;55.904;13.396;2023-03-21T01:08:52;20.83;;;14.00;;
13421;SDS011;6782;55.904;13.396;2023-03-21T01:11:40;20.37;;;13.57;;
13421;SDS011;6782;55.904;13.396;2023-03-21T01:14:29;20.40;;;14.00;;
13421;SDS011;6782;55.904;13.396;2023-03-21T01:17:16;18.87;;;13.83;;
13421;SDS011;6782;55.904;13.396;2023-03-21T01:20:03;13.80;;;12.23;;
13421;SDS011;6782;55.904;13.396;2023-03-21T01:22:51;13.73;;;10.93;;
13421;SDS011;6782;55.904;13.396;2023-03-21T01:25:38;12.13;;;10.13;;
13421;SDS011;6782;55.904;13.396;2023-03-21T01:28:26;15.13;;;10.27;;
13421;SDS011;6782;55.904;13.396;2023-03-21T01:31:16;16.47;;;10.77;;
13421;SDS011;6782;55.904;13.396;2023-03-21T01:34:03;13.70;;;10.60;;
13421;SDS011;6782;55.904;13.396;2023-03-21T01:36:49;14.63;;;9.70;;
13421;SDS011;6782;55.904;13.396;2023-03-21T01:39:36;13.97;;;10.80;;
13421;SDS011;6782;55.904;13.396;2023-03-21T01:42:24;13.60;;;10.63;;
13421;SDS011;6782;55.904;13.396;2023-03-21T01:48:14;13.23;;;11.30;;
13421;SDS011;6782;55.904;13.396;2023-03-21T01:51:01;13.33;;;11.77;;
13421;SDS011;6782;55.904;13.396;2023-03-21T01:53:49;14.03;;;11.17;;
13421;SDS011;6782;55.904;13.396;2023-03-21T01:56:36;14.47;;;10.60;;
13421;SDS011;6782;55.904;13.396;2023-03-21T01:59:26;15.17;;;10.20;;
13421;SDS011;6782;55.904;13.396;2023-03-21T02:02:17;14.93;;;11.00;;
13421;SDS011;6782;55.904;13.396;2023-03-21T02:05:07;12.97;;;10.53;;
13421;SDS011;6782;55.904;13.396;2023-03-21T02:07:54;18.53;;;11.83;;
13421;SDS011;6782;55.904;13.396;2023-03-21T02:10:41;15.87;;;12.10;;
13421;SDS011;6782;55.904;13.396;2023-03-21T02:13:29;18.07;;;13.07;;
13421;SDS011;6782;55.904;13.396;2023-03-21T02:16:18;19.70;;;12.57;;
13421;SDS011;6782;55.904;13.396;2023-03-21T02:19:13;24.77;;;13.13;;
13421;SDS011;6782;55.904;13.396;2023-03-21T02:28:03;18.30;;;12.67;;
13421;SDS011;6782;55.904;13.396;2023-03-21T02:31:00;20.10;;;12.50;;
13421;SDS011;6782;55.904;13.396;2023-03-21T02:37:10;20.03;;;13.30;;
13421;SDS011;6782;55.904;13.396;2023-03-21T02:40:02;23.90;;;13.53;;
13421;SDS011;6782;55.904;13.396;2023-03-21T02:42:55;18.30;;;12.00;;
13421;SDS011;6782;55.904;13.396;2023-03-21T02:45:45;16.93;;;11.60;;
13421;SDS011;6782;55.904;13.396;2023-03-21T02:48:35;19.63;;;11.90;;
13421;SDS011;6782;55.904;13.396;2023-03-21T02:51:23;17.97;;;12.40;;
13421;SDS011;6782;55.904;13.396;2023-03-21T02:54:18;22.10;;;12.97;;
13421;SDS011;6782;55.904;13.396;2023-03-21T02:57:06;24.93;;;12.47;;
13421;SDS011;6782;55.904;13.396;2023-03-21T02:59:53;16.00;;;11.63;;
13421;SDS011;6782;55.904;13.396;2023-03-21T03:02:41;17.50;;;11.67;;
13421;SDS011;6782;55.904;13.396;2023-03-21T03:05:29;20.07;;;12.53;;
13421;SDS011;6782;55.904;13.396;2023-03-21T03:08:18;19.13;;;12.17;;
13421;SDS011;6782;55.904;13.396;2023-03-21T03:11:14;21.83;;;12.23;;
13421;SDS011;6782;55.904;13.396;2023-03-21T03:14:20;22.27;;;13.50;;
13421;SDS011;6782;55.904;13.396;2023-03-21T03:17:16;19.77;;;12.53;;
13421;SDS011;6782;55.904;13.396;2023-03-21T03:20:08;24.53;;;13.10;;
13421;SDS011;6782;55.904;13.396;2023-03-21T03:22:59;22.13;;;12.33;;
13421;SDS011;6782;55.904;13.396;2023-03-21T03:25:50;21.87;;;13.00;;
13421;SDS011;6782;55.904;13.396;2023-03-21T03:28:41;62.83;;;16.83;;
13421;SDS011;6782;55.904;13.396;2023-03-21T03:31:30;40.23;;;13.37;;
13421;SDS011;6782;55.904;13.396;2023-03-21T03:34:19;20.90;;;12.47;;
13421;SDS011;6782;55.904;13.396;2023-03-21T03:37:08;54.03;;;15.57;;
13421;SDS011;6782;55.904;13.396;2023-03-21T03:39:57;71.17;;;17.47;;
13421;SDS011;6782;55.904;13.396;2023-03-21T03:42:46;26.70;;;11.03;;
13421;SDS011;6782;55.904;13.396;2023-03-21T03:45:36;83.50;;;16.97;;
13421;SDS011;6782;55.904;13.396;2023-03-21T03:48:25;53.10;;;13.60;;
13421;SDS011;6782;55.904;13.396;2023-03-21T03:51:14;50.13;;;12.90;;
13421;SDS011;6782;55.904;13.396;2023-03-21T03:54:02;53.77;;;13.57;;
13421;SDS011;6782;55.904;13.396;2023-03-21T03:56:51;35.10;;;13.27;;
13421;SDS011;6782;55.904;13.396;2023-03-21T03:59:39;35.90;;;13.60;;
13421;SDS011;6782;55.904;13.396;2023-03-21T04:02:28;25.57;;;13.17;;
13421;SDS011;6782;55.904;13.396;2023-03-21T04:05:16;34.70;;;13.80;;
13421;SDS011;6782;55.904;13.396;2023-03-21T04:08:05;43.73;;;13.77;;
13421;SDS011;6782;55.904;13.396;2023-03-21T04:10:52;61.43;;;14.90;;
13421;SDS011;6782;55.904;13.396;2023-03-21T04:13:39;52.13;;;15.77;;
13421;SDS011;6782;55.904;13.396;2023-03-21T04:16:26;31.73;;;13.47;;
13421;SDS011;6782;55.904;13.396;2023-03-21T04:19:17;33.57;;;12.03;;
13421;SDS011;6782;55.904;13.396;2023-03-21T04:22:04;48.07;;;14.03;;
13421;SDS011;6782;55.904;13.396;2023-03-21T04:24:51;47.10;;;14.23;;
13421;SDS011;6782;55.904;13.396;2023-03-21T04:27:38;78.33;;;16.93;;
13421;SDS011;6782;55.904;13.396;2023-03-21T04:30:25;52.27;;;15.03;;
13421;SDS011;6782;55.904;13.396;2023-03-21T04:33:13;31.70;;;12.63;;
13421;SDS011;6782;55.904;13.396;2023-03-21T04:36:02;36.37;;;13.37;;
13421;SDS011;6782;55.904;13.396;2023-03-21T04:38:51;43.53;;;13.73;;
13421;SDS011;6782;55.904;13.396;2023-03-21T04:41:38;39.70;;;13.53;;
13421;SDS011;6782;55.904;13.396;2023-03-21T04:44:25;48.17;;;14.43;;
13421;SDS011;6782;55.904;13.396;2023-03-21T04:47:12;25.53;;;13.17;;
13421;SDS011;6782;55.904;13.396;2023-03-21T04:50:00;37.00;;;14.17;;
13421;SDS011;6782;55.904;13.396;2023-03-21T04:52:49;42.13;;;14.60;;
13421;SDS011;6782;55.904;13.396;2023-03-21T04:55:36;44.17;;;14.83;;
13421;SDS011;6782;55.904;13.396;2023-03-21T04:58:23;30.57;;;13.80;;
13421;SDS011;6782;55.904;13.396;2023-03-21T05:01:10;31.20;;;14.07;;
13421;SDS011;6782;55.904;13.396;2023-03-21T05:03:59;30.37;;;13.90;;
13421;SDS011;6782;55.904;13.396;2023-03-21T05:06:46;48.13;;;15.47;;
13421;SDS011;6782;55.904;13.396;2023-03-21T05:09:35;27.60;;;13.00;;
13421;SDS011;6782;55.904;13.396;2023-03-21T05:12:22;28.43;;;14.20;;
13421;SDS011;6782;55.904;13.396;2023-03-21T05:15:09;28.13;;;13.70;;
13421;SDS011;6782;55.904;13.396;2023-03-21T05:17:56;35.63;;;13.80;;
13421;SDS011;6782;55.904;13.396;2023-03-21T05:20:44;23.87;;;14.70;;
13421;SDS011;6782;55.904;13.396;2023-03-21T05:23:31;25.47;;;13.90;;
13421;SDS011;6782;55.904;13.396;2023-03-21T05:26:24;30.27;;;14.33;;
13421;SDS011;6782;55.904;13.396;2023-03-21T05:29:11;24.87;;;14.37;;
13421;SDS011;6782;55.904;13.396;2023-03-21T05:31:58;78.37;;;20.57;;
13421;SDS011;6782;55.904;13.396;2023-03-21T05:34:45;44.17;;;17.20;;
13421;SDS011;6782;55.904;13.396;2023-03-21T05:37:33;26.00;;;13.23;;
13421;SDS011;6782;55.904;13.396;2023-03-21T05:40:20;26.47;;;14.30;;
13421;SDS011;6782;55.904;13.396;2023-03-21T05:43:10;35.40;;;14.80;;
13421;SDS011;6782;55.904;13.396;2023-03-21T05:45:57;49.97;;;16.53;;
13421;SDS011;6782;55.904;13.396;2023-03-21T05:48:44;36.50;;;13.83;;
13421;SDS011;6782;55.904;13.396;2023-03-21T05:51:32;25.07;;;10.87;;
13421;SDS011;6782;55.904;13.396;2023-03-21T05:54:19;33.20;;;11.80;;
13421;SDS011;6782;55.904;13.396;2023-03-21T05:57:06;17.97;;;8.83;;
13421;SDS011;6782;55.904;13.396;2023-03-21T05:59:55;23.07;;;10.27;;
13421;SDS011;6782;55.904;13.396;2023-03-21T06:02:42;42.90;;;12.57;;
13421;SDS011;6782;55.904;13.396;2023-03-21T06:05:30;28.43;;;10.33;;
13421;SDS011;6782;55.904;13.396;2023-03-21T06:08:17;18.43;;;8.80;;
13421;SDS011;6782;55.904;13.396;2023-03-21T06:11:05;17.23;;;9.40;;
13421;SDS011;6782;55.904;13.396;2023-03-21T06:13:57;29.97;;;13.10;;
13421;SDS011;6782;55.904;13.396;2023-03-21T06:16:59;24.67;;;11.43;;
13421;SDS011;6782;55.904;13.396;2023-03-21T06:19:56;36.33;;;11.33;;
13421;SDS011;6782;55.904;13.396;2023-03-21T06:22:45;26.40;;;11.47;;
13421;SDS011;6782;55.904;13.396;2023-03-21T06:25:32;21.63;;;9.50;;
13421;SDS011;6782;55.904;13.396;2023-03-21T06:28:19;24.03;;;10.70;;
13421;SDS011;6782;55.904;13.396;2023-03-21T06:31:07;34.00;;;11.27;;
13421;SDS011;6782;55.904;13.396;2023-03-21T06:33:58;29.07;;;10.83;;
13421;SDS011;6782;55.904;13.396;2023-03-21T06:36:45;38.93;;;11.63;;
13421;SDS011;6782;55.904;13.396;2023-03-21T06:39:42;26.23;;;11.07;;
13421;SDS011;6782;55.904;13.396;2023-03-21T06:42:31;30.40;;;11.03;;
13421;SDS011;6782;55.904;13.396;2023-03-21T06:45:18;35.57;;;11.23;;
13421;SDS011;6782;55.904;13.396;2023-03-21T06:48:05;34.73;;;10.73;;
13421;SDS011;6782;55.904;13.396;2023-03-21T06:50:54;22.43;;;10.23;;
13421;SDS011;6782;55.904;13.396;2023-03-21T06:53:41;36.63;;;11.93;;
13421;SDS011;6782;55.904;13.396;2023-03-21T06:56:29;60.07;;;15.47;;
13421;SDS011;6782;55.904;13.396;2023-03-21T06:59:16;55.93;;;14.40;;
13421;SDS011;6782;55.904;13.396;2023-03-21T07:02:02;38.10;;;12.63;;
13421;SDS011;6782;55.904;13.396;2023-03-21T07:04:49;23.23;;;11.47;;
13421;SDS011;6782;55.904;13.396;2023-03-21T07:07:37;22.50;;;11.47;;
13421;SDS011;6782;55.904;13.396;2023-03-21T07:10:24;23.53;;;12.57;;
13421;SDS011;6782;55.904;13.396;2023-03-21T07:13:11;24.60;;;13.10;;
13421;SDS011;6782;55.904;13.396;2023-03-21T07:15:58;28.50;;;14.53;;
13421;SDS011;6782;55.904;13.396;2023-03-21T07:18:45;22.10;;;12.23;;
13421;SDS011;6782;55.904;13.396;2023-03-21T07:21:32;26.60;;;13.87;;
13421;SDS011;6782;55.904;13.396;2023-03-21T07:24:20;30.17;;;13.93;;
13421;SDS011;6782;55.904;13.396;2023-03-21T07:27:07;26.43;;;14.33;;
13421;SDS011;6782;55.904;13.396;2023-03-21T07:29:54;27.90;;;13.43;;
13421;SDS011;6782;55.904;13.396;2023-03-21T07:32:41;26.63;;;14.00;;
13421;SDS011;6782;55.904;13.396;2023-03-21T07:35:30;29.60;;;15.13;;
13421;SDS011;6782;55.904;13.396;2023-03-21T07:38:17;50.27;;;17.17;;
13421;SDS011;6782;55.904;13.396;2023-03-21T07:41:05;33.87;;;15.13;;
13421;SDS011;6782;55.904;13.396;2023-03-21T07:43:52;30.50;;;15.47;;
13421;SDS011;6782;55.904;13.396;2023-03-21T07:46:39;43.17;;;17.17;;
13421;SDS011;6782;55.904;13.396;2023-03-21T07:49:26;44.00;;;16.53;;
13421;SDS011;6782;55.904;13.396;2023-03-21T07:52:13;32.67;;;14.37;;
13421;SDS011;6782;55.904;13.396;2023-03-21T07:55:00;32.30;;;15.40;;
13421;SDS011;6782;55.904;13.396;2023-03-21T07:57:49;28.50;;;15.27;;
13421;SDS011;6782;55.904;13.396;2023-03-21T08:00:37;34.27;;;15.30;;
13421;SDS011;6782;55.904;13.396;2023-03-21T08:03:23;31.00;;;15.00;;
13421;SDS011;6782;55.904;13.396;2023-03-21T08:06:13;31.77;;;14.23;;
13421;SDS011;6782;55.904;13.396;2023-03-21T08:09:00;30.37;;;15.00;;
13421;SDS011;6782;55.904;13.396;2023-03-21T08:11:48;31.57;;;15.57;;
13421;SDS011;6782;55.904;13.396;2023-03-21T08:14:36;28.27;;;14.47;;
13421;SDS011;6782;55.904;13.396;2023-03-21T08:17:23;32.63;;;16.20;;
13421;SDS011;6782;55.904;13.396;2023-03-21T08:20:11;34.47;;;16.47;;
13421;SDS011;6782;55.904;13.396;2023-03-21T08:22:59;29.40;;;16.43;;
13421;SDS011;6782;55.904;13.396;2023-03-21T08:25:45;29.37;;;17.10;;
13421;SDS011;6782;55.904;13.396;2023-03-21T08:28:32;27.70;;;15.77;;
13421;SDS011;6782;55.904;13.396;2023-03-21T08:31:22;31.83;;;17.50;;
13421;SDS011;6782;55.904;13.396;2023-03-21T08:34:09;31.27;;;17.63;;
13421;SDS011;6782;55.904;13.396;2023-03-21T08:36:58;29.40;;;17.83;;
13421;SDS011;6782;55.904;13.396;2023-03-21T08:39:45;32.60;;;17.37;;
13421;SDS011;6782;55.904;13.396;2023-03-21T08:42:32;36.17;;;18.07;;
13421;SDS011;6782;55.904;13.396;2023-03-21T08:45:20;30.40;;;17.73;;
13421;SDS011;6782;55.904;13.396;2023-03-21T08:48:08;30.10;;;18.00;;
13421;SDS011;6782;55.904;13.396;2023-03-21T08:50:55;29.67;;;17.47;;
13421;SDS011;6782;55.904;13.396;2023-03-21T08:53:42;28.47;;;17.67;;
13421;SDS011;6782;55.904;13.396;2023-03-21T08:56:29;28.73;;;17.70;;
13421;SDS011;6782;55.904;13.396;2023-03-21T08:59:16;28.07;;;17.07;;
13421;SDS011;6782;55.904;13.396;2023-03-21T09:02:03;32.70;;;18.10;;
13421;SDS011;6782;55.904;13.396;2023-03-21T09:04:51;28.83;;;17.60;;
13421;SDS011;6782;55.904;13.396;2023-03-21T09:07:39;27.80;;;17.93;;
13421;SDS011;6782;55.904;13.396;2023-03-21T09:10:26;29.10;;;18.80;;
13421;SDS011;6782;55.904;13.396;2023-03-21T09:13:13;29.10;;;18.23;;
13421;SDS011;6782;55.904;13.396;2023-03-21T09:16:00;27.43;;;17.83;;
13421;SDS011;6782;55.904;13.396;2023-03-21T09:18:47;27.70;;;18.47;;
13421;SDS011;6782;55.904;13.396;2023-03-21T09:21:36;26.27;;;18.50;;
13421;SDS011;6782;55.904;13.396;2023-03-21T09:24:23;30.67;;;19.03;;
13421;SDS011;6782;55.904;13.396;2023-03-21T09:27:10;28.23;;;18.50;;
13421;SDS011;6782;55.904;13.396;2023-03-21T09:29:58;27.57;;;18.53;;
13421;SDS011;6782;55.904;13.396;2023-03-21T09:32:45;30.23;;;19.90;;
13421;SDS011;6782;55.904;13.396;2023-03-21T09:35:33;30.47;;;19.27;;
13421;SDS011;6782;55.904;13.396;2023-03-21T09:38:22;26.03;;;18.70;;
13421;SDS011;6782;55.904;13.396;2023-03-21T09:41:17;26.53;;;18.53;;
13421;SDS011;6782;55.904;13.396;2023-03-21T09:44:10;24.43;;;17.73;;
13421;SDS011;6782;55.904;13.396;2023-03-21T09:47:00;31.90;;;19.53;;
13421;SDS011;6782;55.904;13.396;2023-03-21T09:49:49;30.87;;;20.37;;
13421;SDS011;6782;55.904;13.396;2023-03-21T09:52:40;30.13;;;19.77;;
13421;SDS011;6782;55.904;13.396;2023-03-21T09:55:32;27.13;;;19.23;;
13421;SDS011;6782;55.904;13.396;2023-03-21T09:58:24;29.40;;;19.47;;
13421;SDS011;6782;55.904;13.396;2023-03-21T10:01:15;28.13;;;19.43;;
13421;SDS011;6782;55.904;13.396;2023-03-21T10:04:12;27.43;;;18.00;;
13421;SDS011;6782;55.904;13.396;2023-03-21T10:07:00;25.87;;;18.73;;
13421;SDS011;6782;55.904;13.396;2023-03-21T10:09:48;23.73;;;18.83;;
13421;SDS011;6782;55.904;13.396;2023-03-21T10:12:38;21.43;;;17.47;;
13421;SDS011;6782;55.904;13.396;2023-03-21T10:15:25;22.07;;;15.90;;
13421;SDS011;6782;55.904;13.396;2023-03-21T10:18:19;19.97;;;15.97;;
13421;SDS011;6782;55.904;13.396;2023-03-21T10:21:09;19.43;;;16.13;;
13421;SDS011;6782;55.904;13.396;2023-03-21T10:23:58;21.87;;;16.43;;
13421;SDS011;6782;55.904;13.396;2023-03-21T10:26:48;20.13;;;15.43;;
13421;SDS011;6782;55.904;13.396;2023-03-21T10:29:38;18.37;;;14.63;;
13421;SDS011;6782;55.904;13.396;2023-03-21T10:32:33;18.27;;;14.60;;
13421;SDS011;6782;55.904;13.396;2023-03-21T10:35:23;17.90;;;14.93;;
13421;SDS011;6782;55.904;13.396;2023-03-21T10:38:12;19.87;;;14.27;;
13421;SDS011;6782;55.904;13.396;2023-03-21T10:41:00;17.53;;;14.43;;
13421;SDS011;6782;55.904;13.396;2023-03-21T10:44:02;18.40;;;14.67;;
13421;SDS011;6782;55.904;13.396;2023-03-21T10:46:53;15.80;;;13.13;;
13421;SDS011;6782;55.904;13.396;2023-03-21T10:49:41;15.67;;;13.40;;
13421;SDS011;6782;55.904;13.396;2023-03-21T10:52:28;16.57;;;13.57;;
13421;SDS011;6782;55.904;13.396;2023-03-21T10:55:17;13.80;;;12.47;;
13421;SDS011;6782;55.904;13.396;2023-03-21T10:58:07;14.17;;;12.23;;
13421;SDS011;6782;55.904;13.396;2023-03-21T11:00:57;15.67;;;12.80;;
13421;SDS011;6782;55.904;13.396;2023-03-21T11:03:46;13.47;;;12.07;;
13421;SDS011;6782;55.904;13.396;2023-03-21T11:06:35;14.07;;;12.57;;
13421;SDS011;6782;55.904;13.396;2023-03-21T11:09:24;14.40;;;12.23;;
13421;SDS011;6782;55.904;13.396;2023-03-21T11:12:12;13.83;;;11.40;;
13421;SDS011;6782;55.904;13.396;2023-03-21T11:15:13;12.17;;;10.70;;
13421;SDS011;6782;55.904;13.396;2023-03-21T11:18:11;11.40;;;9.40;;
13421;SDS011;6782;55.904;13.396;2023-03-21T11:21:05;14.87;;;10.10;;
13421;SDS011;6782;55.904;13.396;2023-03-21T11:23:53;12.37;;;10.07;;
13421;SDS011;6782;55.904;13.396;2023-03-21T11:26:43;10.10;;;8.83;;
13421;SDS011;6782;55.904;13.396;2023-03-21T11:29:34;15.33;;;10.00;;
13421;SDS011;6782;55.904;13.396;2023-03-21T11:32:25;11.70;;;10.40;;
13421;SDS011;6782;55.904;13.396;2023-03-21T11:35:12;11.03;;;9.60;;
13421;SDS011;6782;55.904;13.396;2023-03-21T11:38:03;13.53;;;9.90;;
13421;SDS011;6782;55.904;13.396;2023-03-21T11:40:52;12.60;;;10.00;;
13421;SDS011;6782;55.904;13.396;2023-03-21T11:43:39;10.67;;;9.53;;
13421;SDS011;6782;55.904;13.396;2023-03-21T11:46:27;11.83;;;9.53;;
13421;SDS011;6782;55.904;13.396;2023-03-21T11:49:14;12.17;;;8.70;;
13421;SDS011;6782;55.904;13.396;2023-03-21T11:52:10;13.93;;;10.67;;
13421;SDS011;6782;55.904;13.396;2023-03-21T11:55:05;11.50;;;10.30;;
13421;SDS011;6782;55.904;13.396;2023-03-21T11:57:57;13.47;;;10.17;;
13421;SDS011;6782;55.904;13.396;2023-03-21T12:00:47;12.77;;;10.20;;
13421;SDS011;6782;55.904;13.396;2023-03-21T12:03:46;9.17;;;7.90;;
13421;SDS011;6782;55.904;13.396;2023-03-21T12:06:43;13.43;;;8.53;;
13421;SDS011;6782;55.904;13.396;2023-03-21T12:09:33;12.33;;;9.40;;
13421;SDS011;6782;55.904;13.396;2023-03-21T12:12:29;10.03;;;8.27;;
13421;SDS011;6782;55.904;13.396;2023-03-21T12:15:18;10.30;;;8.43;;
13421;SDS011;6782;55.904;13.396;2023-03-21T12:18:11;10.13;;;8.73;;
13421;SDS011;6782;55.904;13.396;2023-03-21T12:21:02;11.23;;;9.40;;
13421;SDS011;6782;55.904;13.396;2023-03-21T12:23:54;14.07;;;10.07;;
13421;SDS011;6782;55.904;13.396;2023-03-21T12:26:58;11.80;;;9.40;;
13421;SDS011;6782;55.904;13.396;2023-03-21T12:30:10;11.43;;;9.37;;
13421;SDS011;6782;55.904;13.396;2023-03-21T12:33:06;14.67;;;11.17;;
13421;SDS011;6782;55.904;13.396;2023-03-21T12:36:04;12.20;;;10.67;;
13421;SDS011;6782;55.904;13.396;2023-03-21T12:38:56;11.83;;;10.63;;
13421;SDS011;6782;55.904;13.396;2023-03-21T12:41:48;14.47;;;11.10;;
13421;SDS011;6782;55.904;13.396;2023-03-21T12:44:38;14.20;;;11.47;;
13421;SDS011;6782;55.904;13.396;2023-03-21T12:47:30;13.13;;;10.87;;
13421;SDS011;6782;55.904;13.396;2023-03-21T12:50:19;15.03;;;12.07;;
13421;SDS011;6782;55.904;13.396;2023-03-21T12:53:13;17.00;;;13.03;;
13421;SDS011;6782;55.904;13.396;2023-03-21T12:56:05;16.93;;;12.53;;
13421;SDS011;6782;55.904;13.396;2023-03-21T12:58:56;17.10;;;13.27;;
13421;SDS011;6782;55.904;13.396;2023-03-21T13:01:44;16.77;;;11.63;;
13421;SDS011;6782;55.904;13.396;2023-03-21T13:04:39;17.17;;;12.13;;
13421;SDS011;6782;55.904;13.396;2023-03-21T13:07:27;18.70;;;13.13;;
13421;SDS011;6782;55.904;13.396;2023-03-21T13:10:17;17.53;;;12.30;;
13421;SDS011;6782;55.904;13.396;2023-03-21T13:13:07;17.30;;;12.13;;
13421;SDS011;6782;55.904;13.396;2023-03-21T13:16:00;22.77;;;14.70;;
13421;SDS011;6782;55.904;13.396;2023-03-21T13:18:53;26.10;;;16.63;;
13421;SDS011;6782;55.904;13.396;2023-03-21T13:21:48;26.80;;;16.07;;
13421;SDS011;6782;55.904;13.396;2023-03-21T13:24:39;25.47;;;17.33;;
13421;SDS011;6782;55.904;13.396;2023-03-21T13:27:28;25.30;;;17.37;;
13421;SDS011;6782;55.904;13.396;2023-03-21T13:30:17;28.57;;;17.60;;
13421;SDS011;6782;55.904;13.396;2023-03-21T13:33:05;25.70;;;16.87;;
13421;SDS011;6782;55.904;13.396;2023-03-21T13:35:58;25.70;;;15.47;;
13421;SDS011;6782;55.904;13.396;2023-03-21T13:38:51;24.83;;;16.27;;
13421;SDS011;6782;55.904;13.396;2023-03-21T13:41:40;26.73;;;16.67;;
13421;SDS011;6782;55.904;13.396;2023-03-21T13:44:30;21.17;;;14.40;;
13421;SDS011;6782;55.904;13.396;2023-03-21T13:47:22;17.60;;;12.50;;
13421;SDS011;6782;55.904;13.396;2023-03-21T13:53:23;16.40;;;11.47;;
13421;SDS011;6782;55.904;13.396;2023-03-21T13:56:22;17.30;;;12.17;;
13421;SDS011;6782;55.904;13.396;2023-03-21T13:59:09;17.23;;;12.23;;
13421;SDS011;6782;55.904;13.396;2023-03-21T14:01:57;20.30;;;13.17;;
13421;SDS011;6782;55.904;13.396;2023-03-21T14:04:44;19.73;;;13.07;;
13421;SDS011;6782;55.904;13.396;2023-03-21T14:07:31;19.00;;;12.67;;
13421;SDS011;6782;55.904;13.396;2023-03-21T14:10:19;21.43;;;13.97;;
13421;SDS011;6782;55.904;13.396;2023-03-21T14:13:10;19.20;;;13.47;;
13421;SDS011;6782;55.904;13.396;2023-03-21T14:16:03;22.47;;;15.53;;
13421;SDS011;6782;55.904;13.396;2023-03-21T14:18:53;26.17;;;16.43;;
13421;SDS011;6782;55.904;13.396;2023-03-21T14:21:46;25.77;;;17.07;;
13421;SDS011;6782;55.904;13.396;2023-03-21T14:24:34;28.93;;;18.07;;
13421;SDS011;6782;55.904;13.396;2023-03-21T14:27:21;32.10;;;18.50;;
13421;SDS011;6782;55.904;13.396;2023-03-21T14:30:17;28.97;;;18.63;;
13421;SDS011;6782;55.904;13.396;2023-03-21T14:33:07;33.77;;;20.97;;
13421;SDS011;6782;55.904;13.396;2023-03-21T14:35:57;34.90;;;21.87;;
13421;SDS011;6782;55.904;13.396;2023-03-21T14:38:52;36.97;;;21.60;;
13421;SDS011;6782;55.904;13.396;2023-03-21T14:41:42;38.10;;;21.80;;
13421;SDS011;6782;55.904;13.396;2023-03-21T14:44:33;37.77;;;23.30;;
13421;SDS011;6782;55.904;13.396;2023-03-21T14:47:22;42.63;;;24.27;;
13421;SDS011;6782;55.904;13.396;2023-03-21T14:50:10;40.53;;;23.93;;
13421;SDS011;6782;55.904;13.396;2023-03-21T14:52:57;42.40;;;24.10;;
13421;SDS011;6782;55.904;13.396;2023-03-21T14:55:45;45.33;;;26.97;;
13421;SDS011;6782;55.904;13.396;2023-03-21T14:58:33;46.83;;;28.53;;
13421;SDS011;6782;55.904;13.396;2023-03-21T15:01:24;57.40;;;29.13;;
13421;SDS011;6782;55.904;13.396;2023-03-21T15:04:14;51.57;;;28.37;;
13421;SDS011;6782;55.904;13.396;2023-03-21T15:07:02;50.63;;;29.33;;
13421;SDS011;6782;55.904;13.396;2023-03-21T15:09:52;47.23;;;27.97;;
13421;SDS011;6782;55.904;13.396;2023-03-21T15:12:48;52.40;;;28.57;;
13421;SDS011;6782;55.904;13.396;2023-03-21T15:15:35;50.17;;;27.53;;
13421;SDS011;6782;55.904;13.396;2023-03-21T15:18:24;55.57;;;28.80;;
13421;SDS011;6782;55.904;13.396;2023-03-21T15:21:13;53.17;;;28.87;;
13421;SDS011;6782;55.904;13.396;2023-03-21T15:24:02;56.00;;;30.97;;
13421;SDS011;6782;55.904;13.396;2023-03-21T15:26:50;50.70;;;29.30;;
13421;SDS011;6782;55.904;13.396;2023-03-21T15:29:40;59.20;;;32.10;;
13421;SDS011;6782;55.904;13.396;2023-03-21T15:32:27;58.60;;;31.77;;
13421;SDS011;6782;55.904;13.396;2023-03-21T15:35:19;54.63;;;31.37;;
13421;SDS011;6782;55.904;13.396;2023-03-21T15:38:19;59.90;;;32.93;;
13421;SDS011;6782;55.904;13.396;2023-03-21T15:41:15;56.37;;;31.40;;
13421;SDS011;6782;55.904;13.396;2023-03-21T15:44:05;58.33;;;31.53;;
13421;SDS011;6782;55.904;13.396;2023-03-21T15:46:57;53.57;;;30.73;;
13421;SDS011;6782;55.904;13.396;2023-03-21T15:49:45;51.80;;;30.73;;
13421;SDS011;6782;55.904;13.396;2023-03-21T15:52:39;58.47;;;32.87;;
13421;SDS011;6782;55.904;13.396;2023-03-21T15:55:28;52.40;;;29.07;;
13421;SDS011;6782;55.904;13.396;2023-03-21T15:58:20;48.53;;;29.47;;
13421;SDS011;6782;55.904;13.396;2023-03-21T16:01:09;48.30;;;27.63;;
13421;SDS011;6782;55.904;13.396;2023-03-21T16:04:01;46.60;;;27.87;;
13421;SDS011;6782;55.904;13.396;2023-03-21T16:06:52;47.37;;;27.90;;
13421;SDS011;6782;55.904;13.396;2023-03-21T16:09:43;45.43;;;29.30;;
13421;SDS011;6782;55.904;13.396;2023-03-21T16:12:33;47.60;;;29.60;;
13421;SDS011;6782;55.904;13.396;2023-03-21T16:15:20;48.60;;;28.97;;
13421;SDS011;6782;55.904;13.396;2023-03-21T16:18:07;40.50;;;27.00;;
13421;SDS011;6782;55.904;13.396;2023-03-21T16:20:55;45.57;;;28.93;;
13421;SDS011;6782;55.904;13.396;2023-03-21T16:23:44;46.60;;;29.47;;
13421;SDS011;6782;55.904;13.396;2023-03-21T16:26:32;42.27;;;27.17;;
13421;SDS011;6782;55.904;13.396;2023-03-21T16:29:23;42.20;;;28.37;;
13421;SDS011;6782;55.904;13.396;2023-03-21T16:32:11;42.13;;;28.17;;
13421;SDS011;6782;55.904;13.396;2023-03-21T16:35:00;45.67;;;28.83;;
13421;SDS011;6782;55.904;13.396;2023-03-21T16:37:48;42.80;;;28.20;;
13421;SDS011;6782;55.904;13.396;2023-03-21T16:40:36;44.87;;;27.60;;
13421;SDS011;6782;55.904;13.396;2023-03-21T16:43:24;45.33;;;28.53;;
13421;SDS011;6782;55.904;13.396;2023-03-21T16:46:13;44.10;;;28.80;;
13421;SDS011;6782;55.904;13.396;2023-03-21T16:49:01;41.07;;;27.70;;